Thursday, January 17, 2019, 6:24 AM EST
Back to Local

KCDW, Caldwell Essex County Airport

Location: Fairfield, NJ, United States Lat: 40.883
Local Time: 6:24 AM EST (11:24 GMT) Lon: -74.283
Time Zone: US/Eastern Elev: 173 ft

Show me the last for .
Show Decoded

2019-01-17 05:53 METAR KCDW 171053Z AUTO VRB04KT 10SM CLR M06/M13 A3036 RMK AO2 SLP287 T10561133
                 =
2019-01-17 04:53 METAR KCDW 170953Z AUTO 33008KT 10SM CLR M05/M14 A3033 RMK AO2 SLP278 T10501139
                 =
2019-01-17 03:53 METAR KCDW 170853Z AUTO 32005KT 10SM CLR M04/M15 A3032 RMK AO2 SLP276 T10441150
                 51015 =
2019-01-17 02:53 METAR KCDW 170753Z AUTO 33006KT 10SM CLR M04/M16 A3031 RMK AO2 SLP272 T10391161
                 =
2019-01-17 01:53 METAR KCDW 170653Z 33011G21KT 10SM CLR M03/M14 A3029 RMK AO2 SLP266 T10281139 =
2019-01-17 00:53 METAR KCDW 170553Z 33004KT 10SM CLR M02/M11 A3028 RMK AO2 SLP260 T10171111 10028
                 21017 51027 =
2019-01-16 23:53 METAR KCDW 170453Z 01005KT 10SM CLR M01/M09 A3026 RMK AO2 SLP253 T10061094
                 400331067 =
2019-01-16 22:53 METAR KCDW 170353Z 32005KT 10SM CLR 01/M09 A3022 RMK AO2 SLP242 T00061089 =
2019-01-16 21:53 METAR KCDW 170253Z 32007KT 10SM FEW048 02/M07 A3020 RMK AO2 SLP233 T00171067
                 53027 =
2019-01-16 20:53 METAR KCDW 170153Z 10SM OVC047 02/M06 A3016 RMK AO2 SLP220 T00221061 =
2019-01-16 19:53 METAR KCDW 170053Z 00000KT 10SM OVC050 02/M06 A3013 RMK AO2 SLP210 T00221061 =
2019-01-16 18:53 METAR KCDW 162353Z 26005KT 10SM BKN055 03/M06 A3012 RMK AO2 SLP205 T00281061
                 10033 20017 53019 =
2019-01-16 17:53 METAR KCDW 162253Z VRB05KT 10SM OVC055 03/M06 A3009 RMK AO2 SLP198 T00281061 =
2019-01-16 16:53 METAR KCDW 162153Z AUTO 27006KT 10SM OVC055 03/M07 A3007 RMK AO2 SLP191
                 T00331067 =
2019-01-16 15:53 METAR KCDW 162053Z 30010KT 10SM BKN049 03/M06 A3006 RMK AO2 SLP186 T00331061
                 53006 =
2019-01-16 14:53 METAR KCDW 161953Z 29012KT 250V310 10SM OVC045 03/M06 A3004 RMK AO2 SLP180
                 T00331061 =
2019-01-16 13:53 METAR KCDW 161853Z 26005KT 10SM OVC043 03/M05 A3004 RMK AO2 SLP179 T00281050 =
2019-01-16 12:53 METAR KCDW 161753Z VRB03KT 10SM OVC038 02/M05 A3004 RMK AO2 SLP180 T00171050
                 10017 21039 58014 =
2019-01-16 11:53 METAR KCDW 161653Z 28011G16KT 10SM OVC037 01/M06 A3007 RMK AO2 SLP188 T00111056
                 =
2019-01-16 10:53 METAR KCDW 161553Z 29005KT 10SM OVC032 01/M06 A3008 RMK AO2 SLP194 T00061056 =
2019-01-16 09:53 METAR KCDW 161453Z 21004KT 6SM HZ OVC032 M01/M05 A3008 RMK AO2 SLP194 T10111050
                 53011 =
2019-01-16 09:24 METAR KCDW 161424Z 24003KT 6SM HZ OVC030 M02/M06 A3007 RMK AO2 T10171056 =
2019-01-16 08:53 METAR KCDW 161353Z 22003KT 6SM HZ OVC028 M02/M06 A3006 RMK AO2 SLP186 T10221056
                 =
2019-01-16 07:53 METAR KCDW 161253Z VRB03KT 6SM HZ OVC027 M03/M07 A3005 RMK AO2 SLP183 T10331067
                 =
2019-01-16 06:53 METAR KCDW 161153Z AUTO VRB03KT 7SM OVC028 M04/M07 A3005 RMK AO2 SLP183
                 T10391072 11039 21067 55000 =
2019-01-16 06:34 METAR KCDW 161134Z AUTO 00000KT 7SM BKN028 M04/M07 A3005 RMK AO2 T10391072 =

Support USWX by starting your Amazon purchase here.